sensor_id;sensor_type;location;lat;lon;timestamp;pressure;altitude;pressure_sealevel;temperature;humidity
29197;BME280;62796;42.654;23.316;2023-03-13T00:01:23;94774.97;;;6.13;36.10
29197;BME280;62796;42.654;23.316;2023-03-13T00:03:48;94790.13;;;6.18;36.16
29197;BME280;62796;42.654;23.316;2023-03-13T00:06:15;94776.63;;;6.11;35.77
29197;BME280;62796;42.654;23.316;2023-03-13T00:08:41;94780.78;;;6.16;35.59
29197;BME280;62796;42.654;23.316;2023-03-13T00:11:08;94781.88;;;6.18;35.41
29197;BME280;62796;42.654;23.316;2023-03-13T00:13:34;94781.41;;;6.20;35.32
29197;BME280;62796;42.654;23.316;2023-03-13T00:16:02;94788.13;;;6.19;35.08
29197;BME280;62796;42.654;23.316;2023-03-13T00:18:28;94793.63;;;6.19;35.04
29197;BME280;62796;42.654;23.316;2023-03-13T00:21:00;94785.97;;;6.13;34.98
29197;BME280;62796;42.654;23.316;2023-03-13T00:23:26;94797.91;;;6.20;34.97
29197;BME280;62796;42.654;23.316;2023-03-13T00:26:02;94798.22;;;6.22;35.06
29197;BME280;62796;42.654;23.316;2023-03-13T00:28:29;94795.41;;;6.12;35.20
29197;BME280;62796;42.654;23.316;2023-03-13T00:33:37;94804.25;;;6.07;35.00
29197;BME280;62796;42.654;23.316;2023-03-13T00:36:05;94800.44;;;6.05;35.57
29197;BME280;62796;42.654;23.316;2023-03-13T00:38:32;94804.38;;;6.04;35.10
29197;BME280;62796;42.654;23.316;2023-03-13T00:41:03;94793.22;;;5.98;35.20
29197;BME280;62796;42.654;23.316;2023-03-13T00:43:29;94805.41;;;5.97;35.36
29197;BME280;62796;42.654;23.316;2023-03-13T00:45:55;94804.34;;;5.95;35.36
29197;BME280;62796;42.654;23.316;2023-03-13T00:48:21;94807.97;;;5.92;35.54
29197;BME280;62796;42.654;23.316;2023-03-13T00:50:46;94796.38;;;5.88;35.28
29197;BME280;62796;42.654;23.316;2023-03-13T00:53:12;94797.63;;;5.96;35.46
29197;BME280;62796;42.654;23.316;2023-03-13T00:55:37;94795.47;;;5.91;35.62
29197;BME280;62796;42.654;23.316;2023-03-13T00:58:02;94796.84;;;5.95;35.75
29197;BME280;62796;42.654;23.316;2023-03-13T01:00:28;94791.31;;;5.86;35.68
29197;BME280;62796;42.654;23.316;2023-03-13T01:02:53;94794.22;;;5.92;35.61
29197;BME280;62796;42.654;23.316;2023-03-13T01:05:19;94790.41;;;5.89;35.46
29197;BME280;62796;42.654;23.316;2023-03-13T01:07:44;94795.59;;;5.87;35.41
29197;BME280;62796;42.654;23.316;2023-03-13T01:10:10;94799.13;;;5.88;35.37
29197;BME280;62796;42.654;23.316;2023-03-13T01:12:35;94790.66;;;5.82;35.79
29197;BME280;62796;42.654;23.316;2023-03-13T01:15:01;94787.25;;;5.78;36.04
29197;BME280;62796;42.654;23.316;2023-03-13T01:17:26;94789.69;;;5.76;36.53
29197;BME280;62796;42.654;23.316;2023-03-13T01:19:55;94789.94;;;5.69;36.49
29197;BME280;62796;42.654;23.316;2023-03-13T01:22:20;94787.78;;;5.64;36.41
29197;BME280;62796;42.654;23.316;2023-03-13T01:24:45;94787.91;;;5.61;36.51
29197;BME280;62796;42.654;23.316;2023-03-13T01:27:14;94788.66;;;5.61;36.64
29197;BME280;62796;42.654;23.316;2023-03-13T01:29:39;94801.19;;;5.62;36.86
29197;BME280;62796;42.654;23.316;2023-03-13T01:32:05;94807.31;;;5.44;37.25
29197;BME280;62796;42.654;23.316;2023-03-13T01:34:30;94804.00;;;5.49;37.27
29197;BME280;62796;42.654;23.316;2023-03-13T01:36:56;94811.13;;;5.47;37.60
29197;BME280;62796;42.654;23.316;2023-03-13T01:39:21;94811.72;;;5.42;37.51
29197;BME280;62796;42.654;23.316;2023-03-13T01:41:47;94799.75;;;5.36;37.64
29197;BME280;62796;42.654;23.316;2023-03-13T01:44:23;94809.00;;;5.29;37.91
29197;BME280;62796;42.654;23.316;2023-03-13T01:46:49;94814.06;;;5.31;38.06
29197;BME280;62796;42.654;23.316;2023-03-13T01:49:18;94818.25;;;5.23;38.08
29197;BME280;62796;42.654;23.316;2023-03-13T01:51:55;94810.34;;;5.25;38.03
29197;BME280;62796;42.654;23.316;2023-03-13T01:54:32;94814.88;;;5.19;38.12
29197;BME280;62796;42.654;23.316;2023-03-13T01:57:05;94818.19;;;5.14;38.03
29197;BME280;62796;42.654;23.316;2023-03-13T01:59:42;94805.56;;;5.03;38.16
29197;BME280;62796;42.654;23.316;2023-03-13T02:02:08;94818.19;;;5.14;37.96
29197;BME280;62796;42.654;23.316;2023-03-13T02:04:37;94822.13;;;5.13;38.45
29197;BME280;62796;42.654;23.316;2023-03-13T02:07:06;94819.06;;;5.11;38.53
29197;BME280;62796;42.654;23.316;2023-03-13T02:09:34;94820.06;;;5.17;38.75
29197;BME280;62796;42.654;23.316;2023-03-13T02:12:12;94803.22;;;5.15;38.76
29197;BME280;62796;42.654;23.316;2023-03-13T02:14:41;94804.69;;;5.07;38.95
29197;BME280;62796;42.654;23.316;2023-03-13T02:17:08;94824.56;;;5.11;38.65
29197;BME280;62796;42.654;23.316;2023-03-13T02:27:23;94831.25;;;5.10;39.69
29197;BME280;62796;42.654;23.316;2023-03-13T02:29:49;94837.94;;;5.09;39.16
29197;BME280;62796;42.654;23.316;2023-03-13T02:32:16;94840.94;;;5.01;39.20
29197;BME280;62796;42.654;23.316;2023-03-13T02:34:43;94848.63;;;5.07;39.04
29197;BME280;62796;42.654;23.316;2023-03-13T02:37:10;94850.91;;;5.08;38.82
29197;BME280;62796;42.654;23.316;2023-03-13T02:39:41;94859.91;;;5.09;39.32
29197;BME280;62796;42.654;23.316;2023-03-13T02:42:08;94869.28;;;4.98;39.56
29197;BME280;62796;42.654;23.316;2023-03-13T02:44:38;94864.66;;;4.95;39.66
29197;BME280;62796;42.654;23.316;2023-03-13T02:47:03;94873.22;;;4.97;39.28
29197;BME280;62796;42.654;23.316;2023-03-13T02:49:29;94880.47;;;4.91;39.59
29197;BME280;62796;42.654;23.316;2023-03-13T02:51:57;94874.66;;;4.89;39.88
29197;BME280;62796;42.654;23.316;2023-03-13T02:54:31;94881.69;;;4.90;40.08
29197;BME280;62796;42.654;23.316;2023-03-13T02:57:00;94887.63;;;4.89;40.35
29197;BME280;62796;42.654;23.316;2023-03-13T02:59:27;94887.06;;;4.94;40.55
29197;BME280;62796;42.654;23.316;2023-03-13T03:01:53;94881.69;;;4.90;41.09
29197;BME280;62796;42.654;23.316;2023-03-13T03:04:20;94881.34;;;4.88;41.08
29197;BME280;62796;42.654;23.316;2023-03-13T03:06:46;94881.69;;;4.90;41.38
29197;BME280;62796;42.654;23.316;2023-03-13T03:09:11;94869.06;;;4.80;40.94
29197;BME280;62796;42.654;23.316;2023-03-13T03:11:37;94873.91;;;4.76;40.15
29197;BME280;62796;42.654;23.316;2023-03-13T03:14:03;94876.84;;;4.82;39.28
29197;BME280;62796;42.654;23.316;2023-03-13T03:16:28;94884.88;;;4.76;39.72
29197;BME280;62796;42.654;23.316;2023-03-13T03:18:54;94895.84;;;4.76;40.49
29197;BME280;62796;42.654;23.316;2023-03-13T03:21:19;94905.94;;;4.79;40.61
29197;BME280;62796;42.654;23.316;2023-03-13T03:23:45;94907.13;;;4.78;40.38
29197;BME280;62796;42.654;23.316;2023-03-13T03:26:11;94913.97;;;4.74;40.97
29197;BME280;62796;42.654;23.316;2023-03-13T03:28:36;94918.91;;;4.79;41.12
29197;BME280;62796;42.654;23.316;2023-03-13T03:31:11;94924.94;;;4.74;41.87
29197;BME280;62796;42.654;23.316;2023-03-13T03:33:38;94930.31;;;4.77;41.75
29197;BME280;62796;42.654;23.316;2023-03-13T03:36:09;94911.00;;;4.68;41.60
29197;BME280;62796;42.654;23.316;2023-03-13T03:38:35;94921.53;;;4.70;41.53
29197;BME280;62796;42.654;23.316;2023-03-13T03:41:00;94937.56;;;4.71;41.62
29197;BME280;62796;42.654;23.316;2023-03-13T03:43:26;94920.00;;;4.56;41.67
29197;BME280;62796;42.654;23.316;2023-03-13T03:45:51;94947.06;;;4.54;41.31
29197;BME280;62796;42.654;23.316;2023-03-13T03:48:17;94949.81;;;4.54;42.01
29197;BME280;62796;42.654;23.316;2023-03-13T03:50:42;94953.41;;;4.51;41.74
29197;BME280;62796;42.654;23.316;2023-03-13T03:53:08;94955.41;;;4.51;41.98
29197;BME280;62796;42.654;23.316;2023-03-13T03:55:35;94956.94;;;4.52;41.74
29197;BME280;62796;42.654;23.316;2023-03-13T03:58:00;94954.66;;;4.50;42.22
29197;BME280;62796;42.654;23.316;2023-03-13T04:00:25;94964.84;;;4.50;42.48
29197;BME280;62796;42.654;23.316;2023-03-13T04:02:52;94966.50;;;4.47;42.46
29197;BME280;62796;42.654;23.316;2023-03-13T04:05:18;94964.28;;;4.42;42.53
29197;BME280;62796;42.654;23.316;2023-03-13T04:07:43;94969.09;;;4.38;42.61
29197;BME280;62796;42.654;23.316;2023-03-13T04:10:09;94967.66;;;4.33;42.92
29197;BME280;62796;42.654;23.316;2023-03-13T04:12:34;94981.03;;;4.31;42.78
29197;BME280;62796;42.654;23.316;2023-03-13T04:15:00;94980.47;;;4.24;43.13
29197;BME280;62796;42.654;23.316;2023-03-13T04:17:25;94980.97;;;4.19;43.63
29197;BME280;62796;42.654;23.316;2023-03-13T04:19:51;94982.94;;;4.18;43.49
29197;BME280;62796;42.654;23.316;2023-03-13T04:22:17;94988.34;;;4.22;43.65
29197;BME280;62796;42.654;23.316;2023-03-13T04:24:42;94994.28;;;4.20;43.56
29197;BME280;62796;42.654;23.316;2023-03-13T04:27:08;94992.50;;;4.14;43.79
29197;BME280;62796;42.654;23.316;2023-03-13T04:29:33;94992.81;;;4.16;43.32
29197;BME280;62796;42.654;23.316;2023-03-13T04:31:59;95005.75;;;4.15;43.32
29197;BME280;62796;42.654;23.316;2023-03-13T04:34:24;95003.44;;;4.14;43.84
29197;BME280;62796;42.654;23.316;2023-03-13T04:36:50;95008.41;;;4.19;44.02
29197;BME280;62796;42.654;23.316;2023-03-13T04:39:15;95023.84;;;4.13;43.90
29197;BME280;62796;42.654;23.316;2023-03-13T04:41:41;95022.31;;;4.12;43.92
29197;BME280;62796;42.654;23.316;2023-03-13T04:44:06;95034.38;;;4.14;43.88
29197;BME280;62796;42.654;23.316;2023-03-13T04:46:32;95028.44;;;4.16;43.75
29197;BME280;62796;42.654;23.316;2023-03-13T04:48:57;95041.66;;;4.21;43.94
29197;BME280;62796;42.654;23.316;2023-03-13T04:51:22;95039.94;;;4.27;44.02
29197;BME280;62796;42.654;23.316;2023-03-13T04:53:48;95030.09;;;4.13;44.20
29197;BME280;62796;42.654;23.316;2023-03-13T04:56:21;95038.22;;;4.17;44.17
29197;BME280;62796;42.654;23.316;2023-03-13T04:58:47;95035.16;;;4.15;44.22
29197;BME280;62796;42.654;23.316;2023-03-13T05:01:12;95034.47;;;4.11;44.53
29197;BME280;62796;42.654;23.316;2023-03-13T05:03:37;95033.94;;;4.16;44.27
29197;BME280;62796;42.654;23.316;2023-03-13T05:06:03;95044.47;;;4.17;44.70
29197;BME280;62796;42.654;23.316;2023-03-13T05:08:28;95040.97;;;4.17;44.59
29197;BME280;62796;42.654;23.316;2023-03-13T05:10:54;95037.03;;;4.18;44.90
29197;BME280;62796;42.654;23.316;2023-03-13T05:13:19;95029.47;;;4.22;44.90
29197;BME280;62796;42.654;23.316;2023-03-13T05:15:45;95032.22;;;4.22;44.45
29197;BME280;62796;42.654;23.316;2023-03-13T05:18:10;95040.41;;;4.38;44.51
29197;BME280;62796;42.654;23.316;2023-03-13T05:20:37;95043.06;;;4.54;44.73
29197;BME280;62796;42.654;23.316;2023-03-13T05:23:02;95046.81;;;4.60;44.30
29197;BME280;62796;42.654;23.316;2023-03-13T05:25:28;95056.56;;;4.77;43.71
29197;BME280;62796;42.654;23.316;2023-03-13T05:27:53;95063.38;;;4.85;43.88
29197;BME280;62796;42.654;23.316;2023-03-13T05:30:18;95052.84;;;4.96;43.01
29197;BME280;62796;42.654;23.316;2023-03-13T05:32:44;95069.34;;;5.09;43.22
29197;BME280;62796;42.654;23.316;2023-03-13T05:35:09;95060.13;;;5.16;43.08
29197;BME280;62796;42.654;23.316;2023-03-13T05:37:35;95073.53;;;5.39;42.54
29197;BME280;62796;42.654;23.316;2023-03-13T05:40:00;95066.72;;;5.56;41.81
29197;BME280;62796;42.654;23.316;2023-03-13T05:42:26;95069.69;;;5.74;41.53
29197;BME280;62796;42.654;23.316;2023-03-13T05:44:51;95079.06;;;5.89;40.46
29197;BME280;62796;42.654;23.316;2023-03-13T05:47:17;95071.31;;;6.09;40.16
29197;BME280;62796;42.654;23.316;2023-03-13T05:49:43;95073.59;;;6.24;39.83
29197;BME280;62796;42.654;23.316;2023-03-13T05:52:08;95082.78;;;6.42;39.05
29197;BME280;62796;42.654;23.316;2023-03-13T05:54:34;95092.31;;;6.63;38.72
29197;BME280;62796;42.654;23.316;2023-03-13T05:56:59;95079.47;;;6.69;38.45
29197;BME280;62796;42.654;23.316;2023-03-13T05:59:25;95092.72;;;6.96;38.18
29197;BME280;62796;42.654;23.316;2023-03-13T06:01:50;95090.81;;;7.14;37.77
29197;BME280;62796;42.654;23.316;2023-03-13T06:04:15;95093.56;;;7.36;37.00
29197;BME280;62796;42.654;23.316;2023-03-13T06:06:41;95086.47;;;7.57;36.88
29197;BME280;62796;42.654;23.316;2023-03-13T06:09:06;95094.50;;;7.73;37.04
29197;BME280;62796;42.654;23.316;2023-03-13T06:11:32;95093.16;;;7.87;36.55
29197;BME280;62796;42.654;23.316;2023-03-13T06:13:57;95103.38;;;8.17;35.41
29197;BME280;62796;42.654;23.316;2023-03-13T06:16:24;95092.22;;;8.20;34.98
29197;BME280;62796;42.654;23.316;2023-03-13T06:18:49;95094.41;;;8.34;34.84
29197;BME280;62796;42.654;23.316;2023-03-13T06:21:15;95086.59;;;8.51;33.68
29197;BME280;62796;42.654;23.316;2023-03-13T06:23:40;95090.44;;;8.54;33.68
29197;BME280;62796;42.654;23.316;2023-03-13T06:26:06;95091.06;;;8.58;33.60
29197;BME280;62796;42.654;23.316;2023-03-13T06:28:32;95097.19;;;8.44;32.78
29197;BME280;62796;42.654;23.316;2023-03-13T06:31:02;95106.97;;;8.36;33.20
29197;BME280;62796;42.654;23.316;2023-03-13T06:33:27;95103.34;;;8.57;32.82
29197;BME280;62796;42.654;23.316;2023-03-13T06:35:53;95090.13;;;8.79;32.02
29197;BME280;62796;42.654;23.316;2023-03-13T06:38:18;95073.56;;;8.79;31.83
29197;BME280;62796;42.654;23.316;2023-03-13T06:40:43;95073.88;;;8.54;31.63
29197;BME280;62796;42.654;23.316;2023-03-13T06:43:09;95078.91;;;8.28;31.88
29197;BME280;62796;42.654;23.316;2023-03-13T06:45:35;95064.50;;;8.33;32.00
29197;BME280;62796;42.654;23.316;2023-03-13T06:48:02;95081.84;;;8.61;31.64
29197;BME280;62796;42.654;23.316;2023-03-13T06:50:27;95079.88;;;8.79;31.27
29197;BME280;62796;42.654;23.316;2023-03-13T06:52:53;95071.56;;;9.07;30.69
29197;BME280;62796;42.654;23.316;2023-03-13T06:55:18;95085.84;;;8.87;31.06
29197;BME280;62796;42.654;23.316;2023-03-13T06:57:51;95083.84;;;8.97;30.99
29197;BME280;62796;42.654;23.316;2023-03-13T07:00:17;95080.78;;;8.95;30.59
29197;BME280;62796;42.654;23.316;2023-03-13T07:02:43;95077.22;;;9.12;31.25
29197;BME280;62796;42.654;23.316;2023-03-13T07:05:08;95065.59;;;9.59;30.48
29197;BME280;62796;42.654;23.316;2023-03-13T07:07:34;95063.78;;;9.89;30.12
29197;BME280;62796;42.654;23.316;2023-03-13T07:09:59;95069.09;;;10.01;30.11
29197;BME280;62796;42.654;23.316;2023-03-13T07:12:25;95074.81;;;10.54;30.60
29197;BME280;62796;42.654;23.316;2023-03-13T07:14:50;95085.47;;;11.09;29.07
29197;BME280;62796;42.654;23.316;2023-03-13T07:17:16;95085.31;;;11.42;27.77
29197;BME280;62796;42.654;23.316;2023-03-13T07:19:41;95078.25;;;11.55;26.78
29197;BME280;62796;42.654;23.316;2023-03-13T07:22:07;95069.53;;;11.77;26.94
29197;BME280;62796;42.654;23.316;2023-03-13T07:24:32;95070.38;;;11.98;26.93
29197;BME280;62796;42.654;23.316;2023-03-13T07:26:57;95066.75;;;12.27;26.37
29197;BME280;62796;42.654;23.316;2023-03-13T07:29:23;95065.84;;;12.15;26.07
29197;BME280;62796;42.654;23.316;2023-03-13T07:31:49;95066.97;;;12.43;26.66
29197;BME280;62796;42.654;23.316;2023-03-13T07:34:14;95062.25;;;12.69;25.05
29197;BME280;62796;42.654;23.316;2023-03-13T07:36:40;95057.13;;;12.83;24.60
29197;BME280;62796;42.654;23.316;2023-03-13T07:39:06;95067.19;;;13.00;25.02
29197;BME280;62796;42.654;23.316;2023-03-13T07:41:32;95067.41;;;13.17;25.06
29197;BME280;62796;42.654;23.316;2023-03-13T07:43:57;95066.56;;;13.62;24.44
29197;BME280;62796;42.654;23.316;2023-03-13T07:46:23;95071.31;;;13.82;23.58
29197;BME280;62796;42.654;23.316;2023-03-13T07:48:49;95067.28;;;13.57;23.84
29197;BME280;62796;42.654;23.316;2023-03-13T07:51:19;95075.50;;;13.41;24.09
29197;BME280;62796;42.654;23.316;2023-03-13T07:53:46;95068.38;;;13.65;23.71
29197;BME280;62796;42.654;23.316;2023-03-13T07:56:17;95065.25;;;13.83;24.11
29197;BME280;62796;42.654;23.316;2023-03-13T07:58:43;95062.25;;;14.24;23.40
29197;BME280;62796;42.654;23.316;2023-03-13T08:01:16;95061.41;;;14.49;23.43
29197;BME280;62796;42.654;23.316;2023-03-13T08:03:42;95053.19;;;14.77;22.66
29197;BME280;62796;42.654;23.316;2023-03-13T08:06:14;95052.78;;;15.01;22.83
29197;BME280;62796;42.654;23.316;2023-03-13T08:08:41;95049.00;;;15.15;22.05
29197;BME280;62796;42.654;23.316;2023-03-13T08:11:15;95050.44;;;14.82;22.67
29197;BME280;62796;42.654;23.316;2023-03-13T08:13:42;95049.00;;;15.04;22.16
29197;BME280;62796;42.654;23.316;2023-03-13T08:16:10;95043.22;;;15.29;22.25
29197;BME280;62796;42.654;23.316;2023-03-13T08:18:37;95034.34;;;15.31;22.31
29197;BME280;62796;42.654;23.316;2023-03-13T08:21:05;95048.53;;;15.22;22.38
29197;BME280;62796;42.654;23.316;2023-03-13T08:23:32;95047.44;;;15.03;22.32
29197;BME280;62796;42.654;23.316;2023-03-13T08:26:06;95056.94;;;15.33;22.15
29197;BME280;62796;42.654;23.316;2023-03-13T08:28:31;95055.00;;;15.67;21.76
29197;BME280;62796;42.654;23.316;2023-03-13T08:30:57;95060.78;;;15.46;21.74
29197;BME280;62796;42.654;23.316;2023-03-13T08:33:22;95052.69;;;15.54;21.66
29197;BME280;62796;42.654;23.316;2023-03-13T08:35:48;95053.72;;;15.95;21.47
29197;BME280;62796;42.654;23.316;2023-03-13T08:38:14;95055.72;;;16.23;21.47
29197;BME280;62796;42.654;23.316;2023-03-13T08:40:39;95058.78;;;16.25;21.38
29197;BME280;62796;42.654;23.316;2023-03-13T08:43:04;95058.47;;;15.39;22.39
29197;BME280;62796;42.654;23.316;2023-03-13T08:45:30;95053.22;;;15.69;22.23
29197;BME280;62796;42.654;23.316;2023-03-13T08:47:55;95061.34;;;16.00;21.56
29197;BME280;62796;42.654;23.316;2023-03-13T08:50:20;95046.34;;;16.20;21.52
29197;BME280;62796;42.654;23.316;2023-03-13T08:52:46;95059.06;;;15.77;21.29
29197;BME280;62796;42.654;23.316;2023-03-13T08:55:11;95049.00;;;15.15;21.72
29197;BME280;62796;42.654;23.316;2023-03-13T08:57:37;95058.34;;;15.01;22.21
29197;BME280;62796;42.654;23.316;2023-03-13T09:00:03;95055.94;;;15.41;22.02
29197;BME280;62796;42.654;23.316;2023-03-13T09:02:31;95052.19;;;15.61;21.63
29197;BME280;62796;42.654;23.316;2023-03-13T09:04:56;95042.53;;;16.01;21.76
29197;BME280;62796;42.654;23.316;2023-03-13T09:07:21;95044.78;;;16.41;21.40
29197;BME280;62796;42.654;23.316;2023-03-13T09:09:47;95045.03;;;16.60;20.81
29197;BME280;62796;42.654;23.316;2023-03-13T09:12:12;95045.56;;;16.42;20.84
29197;BME280;62796;42.654;23.316;2023-03-13T09:14:38;95038.41;;;16.63;20.50
29197;BME280;62796;42.654;23.316;2023-03-13T09:17:03;95040.97;;;16.39;21.34
29197;BME280;62796;42.654;23.316;2023-03-13T09:19:29;95035.91;;;16.54;20.72
29197;BME280;62796;42.654;23.316;2023-03-13T09:21:54;95025.78;;;16.07;21.38
29197;BME280;62796;42.654;23.316;2023-03-13T09:24:20;95030.34;;;15.98;21.49
29197;BME280;62796;42.654;23.316;2023-03-13T09:26:45;95037.41;;;16.55;21.12
29197;BME280;62796;42.654;23.316;2023-03-13T09:29:10;95035.19;;;17.00;20.66
29197;BME280;62796;42.654;23.316;2023-03-13T09:31:36;95036.19;;;17.02;20.59
29197;BME280;62796;42.654;23.316;2023-03-13T09:34:02;95042.44;;;17.31;20.25
29197;BME280;62796;42.654;23.316;2023-03-13T09:36:29;95032.06;;;17.14;20.50
29197;BME280;62796;42.654;23.316;2023-03-13T09:38:56;95035.56;;;16.74;21.05
29197;BME280;62796;42.654;23.316;2023-03-13T09:41:31;95042.97;;;17.29;20.10
29197;BME280;62796;42.654;23.316;2023-03-13T09:46:48;95029.66;;;17.41;20.02
29197;BME280;62796;42.654;23.316;2023-03-13T09:49:40;95034.09;;;17.20;20.05
29197;BME280;62796;42.654;23.316;2023-03-13T09:52:33;95027.53;;;17.58;19.44
29197;BME280;62796;42.654;23.316;2023-03-13T09:55:13;95021.53;;;17.78;19.64
29197;BME280;62796;42.654;23.316;2023-03-13T09:57:57;95020.31;;;18.03;18.97
29197;BME280;62796;42.654;23.316;2023-03-13T10:00:47;95026.31;;;18.43;18.29
29197;BME280;62796;42.654;23.316;2023-03-13T10:03:30;95023.91;;;18.76;18.16
29197;BME280;62796;42.654;23.316;2023-03-13T10:06:09;95019.19;;;18.90;18.00
29197;BME280;62796;42.654;23.316;2023-03-13T10:08:35;95022.91;;;19.17;17.96
29197;BME280;62796;42.654;23.316;2023-03-13T10:11:39;95026.41;;;19.42;17.74
29197;BME280;62796;42.654;23.316;2023-03-13T10:14:18;95016.22;;;19.39;17.77
29197;BME280;62796;42.654;23.316;2023-03-13T10:16:58;95003.69;;;19.21;17.82
29197;BME280;62796;42.654;23.316;2023-03-13T10:19:30;95004.25;;;19.19;17.78
29197;BME280;62796;42.654;23.316;2023-03-13T10:21:58;94996.53;;;19.44;17.73
29197;BME280;62796;42.654;23.316;2023-03-13T10:24:36;94996.38;;;19.55;17.15
29197;BME280;62796;42.654;23.316;2023-03-13T10:27:08;94978.22;;;19.38;17.22
29197;BME280;62796;42.654;23.316;2023-03-13T10:29:33;94978.13;;;19.62;17.67
29197;BME280;62796;42.654;23.316;2023-03-13T10:32:07;94975.09;;;19.22;17.95
29197;BME280;62796;42.654;23.316;2023-03-13T10:34:57;94969.78;;;19.19;18.20
29197;BME280;62796;42.654;23.316;2023-03-13T10:37:29;94962.59;;;19.42;18.25
29197;BME280;62796;42.654;23.316;2023-03-13T10:42:42;94963.09;;;19.91;17.36
29197;BME280;62796;42.654;23.316;2023-03-13T10:45:16;94951.44;;;20.00;17.48
29197;BME280;62796;42.654;23.316;2023-03-13T10:47:43;94948.16;;;20.28;17.20
29197;BME280;62796;42.654;23.316;2023-03-13T10:50:21;94944.13;;;20.50;16.86
29197;BME280;62796;42.654;23.316;2023-03-13T10:52:48;94944.25;;;20.57;16.71
29197;BME280;62796;42.654;23.316;2023-03-13T10:55:19;94934.81;;;20.68;16.41
29197;BME280;62796;42.654;23.316;2023-03-13T10:57:57;94943.69;;;20.85;16.52
29197;BME280;62796;42.654;23.316;2023-03-13T11:02:57;94943.06;;;20.66;16.20
29197;BME280;62796;42.654;23.316;2023-03-13T11:07:52;94931.22;;;20.93;16.35
29197;BME280;62796;42.654;23.316;2023-03-13T11:10:27;94918.47;;;20.79;16.34
29197;BME280;62796;42.654;23.316;2023-03-13T11:12:57;94919.63;;;20.05;16.98
29197;BME280;62796;42.654;23.316;2023-03-13T11:15:44;94916.16;;;19.99;16.95
29197;BME280;62796;42.654;23.316;2023-03-13T11:18:38;94912.94;;;17.60;19.11
29197;BME280;62796;42.654;23.316;2023-03-13T11:21:04;94903.00;;;17.29;19.95
29197;BME280;62796;42.654;23.316;2023-03-13T11:23:39;94904.69;;;17.97;19.57
29197;BME280;62796;42.654;23.316;2023-03-13T11:26:25;94908.75;;;18.45;19.04
29197;BME280;62796;42.654;23.316;2023-03-13T11:31:38;94892.66;;;17.78;19.39
29197;BME280;62796;42.654;23.316;2023-03-13T11:36:59;94883.19;;;17.51;20.05
29197;BME280;62796;42.654;23.316;2023-03-13T11:45:08;94870.81;;;17.71;19.93
29197;BME280;62796;42.654;23.316;2023-03-13T12:01:57;94838.31;;;19.94;17.67
29197;BME280;62796;42.654;23.316;2023-03-13T12:04:38;94839.38;;;20.43;16.68
29197;BME280;62796;42.654;23.316;2023-03-13T12:09:45;94824.00;;;21.25;16.81
29197;BME280;62796;42.654;23.316;2023-03-13T12:15:26;94818.56;;;22.25;15.25
29197;BME280;62796;42.654;23.316;2023-03-13T12:17:57;94820.38;;;22.43;15.09
29197;BME280;62796;42.654;23.316;2023-03-13T12:20:39;94813.66;;;22.61;14.71
29197;BME280;62796;42.654;23.316;2023-03-13T12:25:58;94818.97;;;23.16;14.84
29197;BME280;62796;42.654;23.316;2023-03-13T12:28:29;94802.06;;;23.46;14.36
29197;BME280;62796;42.654;23.316;2023-03-13T12:31:32;94808.47;;;23.69;13.98
29197;BME280;62796;42.654;23.316;2023-03-13T12:36:28;94813.00;;;23.65;14.70
29197;BME280;62796;42.654;23.316;2023-03-13T12:39:14;94810.00;;;23.71;14.25
29197;BME280;62796;42.654;23.316;2023-03-13T12:44:49;94801.63;;;24.33;13.58
29197;BME280;62796;42.654;23.316;2023-03-13T12:47:18;94799.63;;;24.58;13.20
29197;BME280;62796;42.654;23.316;2023-03-13T13:00:50;94807.88;;;23.26;14.28
29197;BME280;62796;42.654;23.316;2023-03-13T13:06:04;94802.06;;;23.61;14.20
29197;BME280;62796;42.654;23.316;2023-03-13T13:08:38;94809.03;;;23.76;13.65
29197;BME280;62796;42.654;23.316;2023-03-13T13:14:03;94800.16;;;24.17;13.38
29197;BME280;62796;42.654;23.316;2023-03-13T13:16:51;94800.31;;;24.34;13.25
29197;BME280;62796;42.654;23.316;2023-03-13T13:24:59;94797.06;;;24.93;12.76
29197;BME280;62796;42.654;23.316;2023-03-13T13:30:21;94791.78;;;24.97;12.66
29197;BME280;62796;42.654;23.316;2023-03-13T13:32:50;94790.78;;;25.34;12.22
29197;BME280;62796;42.654;23.316;2023-03-13T13:35:32;94782.66;;;25.06;12.49
29197;BME280;62796;42.654;23.316;2023-03-13T13:46:31;94778.00;;;25.18;12.61
29197;BME280;62796;42.654;23.316;2023-03-13T13:51:30;94774.91;;;25.31;12.18
29197;BME280;62796;42.654;23.316;2023-03-13T13:53:56;94774.03;;;25.53;12.54
29197;BME280;62796;42.654;23.316;2023-03-13T13:59:00;94745.13;;;25.72;11.92
29197;BME280;62796;42.654;23.316;2023-03-13T14:01:27;94765.16;;;25.49;11.91
29197;BME280;62796;42.654;23.316;2023-03-13T14:04:00;94768.44;;;24.81;12.39
29197;BME280;62796;42.654;23.316;2023-03-13T14:06:31;94766.56;;;24.68;12.60
29197;BME280;62796;42.654;23.316;2023-03-13T14:11:45;94767.47;;;24.78;12.61
29197;BME280;62796;42.654;23.316;2023-03-13T14:14:19;94758.25;;;24.70;13.00
29197;BME280;62796;42.654;23.316;2023-03-13T14:19:36;94758.00;;;25.16;12.00
29197;BME280;62796;42.654;23.316;2023-03-13T14:22:06;94757.34;;;25.57;11.83
29197;BME280;62796;42.654;23.316;2023-03-13T14:24:32;94760.69;;;25.63;11.71
29197;BME280;62796;42.654;23.316;2023-03-13T14:26:58;94753.19;;;25.58;12.22
29197;BME280;62796;42.654;23.316;2023-03-13T14:29:23;94754.16;;;25.28;12.16
29197;BME280;62796;42.654;23.316;2023-03-13T14:31:55;94758.81;;;25.09;12.36
29197;BME280;62796;42.654;23.316;2023-03-13T14:34:21;94754.13;;;24.64;12.38
29197;BME280;62796;42.654;23.316;2023-03-13T14:36:52;94751.16;;;23.84;12.92
29197;BME280;62796;42.654;23.316;2023-03-13T14:39:35;94756.56;;;22.84;13.72
29197;BME280;62796;42.654;23.316;2023-03-13T14:42:04;94753.63;;;22.10;14.60
29197;BME280;62796;42.654;23.316;2023-03-13T14:44:32;94748.81;;;21.62;15.31
29197;BME280;62796;42.654;23.316;2023-03-13T14:47:03;94759.84;;;21.31;15.73